Weston, Florida
Current Conditions -  °F | °C
As of 3:53 PM on Friday 19 Dec 2014 (Local Time) from KHWO Reporting Station
Clear Clear  
Wind Chill: 76°   Ceiling: Unl
Heat Index: 76°   Visibility: 10mi
Dew Point: 59°   Wind: 9mph
Humidity: 56%   Direction: 100°E
Pressure: 30.03"   Gusts: NA
Location:  26.11°N, 80.41°W
Report Text: KHWO 192053Z 10008KT 10SM CLR 24/15 A3003 RMK AO2 SLP170 T02440150 56010
Loading
Personal Weather Stations






























Interactive Weather Map New forecast layout! Learn more

10-Day Weather Forecast

Advertisements
Track Severe Weather on mobile